Cenk Y — TCZV7 — position and weather

sailwx.info

Track history (hours):
 
Tides and Currents Weather Stations Pressure Air Temp Water Temp Dewpoint Dewpoint Depression Visibility Wind Speed Wind Dir Waves Ship Positions

Cenk Y

Last reported at 2015-Aug-29 06:18 UTC. Time now 2015-Aug-29 07:25 UTC.
Position N 32°54' E 033°28'.

Length 150 m; draft 5.4 m.

Type: Ship. MMSI: 271042575.

Date/timePositionNaut miles runAvg speedWind from/ knotsBaromVisibWave heightAir tempDewpointWater temp
2015-Aug-29 06:18N 32°54' E 033°28'2310.6
2015-Aug-29 04:06N 32°34' E 033°15'610.9
2015-Aug-29 03:33N 32°29' E 033°11'7610.3
2015-Aug-28 20:13N 31°25' E 032°24'710.3
2015-Aug-28 19:33N 31°18' E 032°22'8 7.7
2015-Aug-28 18:29N 31°10' E 032°20'  
2015-Aug-22 19:04N 33°44' E 033°52'713.1
2015-Aug-22 18:32N 33°50' E 033°56'1312.8
2015-Aug-22 17:33N 34°01' E 034°04'1312.5
2015-Aug-22 16:30N 34°13' E 034°11'  
2015-Aug-20 08:32N 34°18' E 034°24'4614.0
2015-Aug-20 05:13N 33°38' E 033°55'3512.5
2015-Aug-20 02:27N 33°08' E 033°36'2312.3
2015-Aug-20 00:33N 32°48' E 033°22'1312.5
2015-Aug-19 23:31N 32°36' E 033°15'5412.5
2015-Aug-19 19:10N 31°48' E 032°46'2810.8
2015-Aug-19 16:33N 31°26' E 032°24'1411.7
2015-Aug-19 15:24N 31°13' E 032°21'8 9.9
2015-Aug-19 14:33N 31°05' E 032°18'  
Track history (hours):
 
Tides and Currents Weather Stations Pressure Air Temp Water Temp Dewpoint Dewpoint Depression Visibility Wind Speed Wind Dir Waves Ship Positions

Cenk Y

Last reported at 2015-Aug-29 06:18 UTC. Time now 2015-Aug-29 07:25 UTC.
Position N 32°54' E 033°28'.

Length 150 m; draft 5.4 m.

Type: Ship. MMSI: 271042575.

Date/timePositionNaut miles runAvg speedWind from/ knotsBaromVisibWave heightAir tempDewpointWater temp
2015-Aug-29 06:18N 32°54' E 033°28'2310.6
2015-Aug-29 04:06N 32°34' E 033°15'610.9
2015-Aug-29 03:33N 32°29' E 033°11'7610.3
2015-Aug-28 20:13N 31°25' E 032°24'710.3
2015-Aug-28 19:33N 31°18' E 032°22'8 7.7
2015-Aug-28 18:29N 31°10' E 032°20'  
2015-Aug-22 19:04N 33°44' E 033°52'713.1
2015-Aug-22 18:32N 33°50' E 033°56'1312.8
2015-Aug-22 17:33N 34°01' E 034°04'1312.5
2015-Aug-22 16:30N 34°13' E 034°11'  
2015-Aug-20 08:32N 34°18' E 034°24'4614.0
2015-Aug-20 05:13N 33°38' E 033°55'3512.5
2015-Aug-20 02:27N 33°08' E 033°36'2312.3
2015-Aug-20 00:33N 32°48' E 033°22'1312.5
2015-Aug-19 23:31N 32°36' E 033°15'5412.5
2015-Aug-19 19:10N 31°48' E 032°46'2810.8
2015-Aug-19 16:33N 31°26' E 032°24'1411.7
2015-Aug-19 15:24N 31°13' E 032°21'8 9.9
2015-Aug-19 14:33N 31°05' E 032°18'  

Dump ship's entire track history